Time;durP1;ratioP1;P1;durP2;ratioP2;P2;SDS_P1;SDS_P2;PMS_P1;PMS_P2;Temp;Humidity;BMP_temperature;BMP_pressure;BME280_temperature;BME280_humidity;BME280_pressure;Samples;Min_cycle;Max_cycle;Signal;HPM_P1;HPM_P2
2022/01/22 00:02:19;;;;;;;;;;;8.60;89.10;;;;;;4974440;28;20004;-76
2022/01/22 00:04:45;;;;;;;;;;;8.60;89.10;;;;;;4992790;28;19956;-77
2022/01/22 00:07:10;;;;;;;;;;;8.50;89.10;;;;;;4992875;28;19913;-75
2022/01/22 00:09:39;;;;;;;;;;;8.50;89.20;;;;;;4974881;28;19905;-75
2022/01/22 00:12:06;;;;;;;;;;;8.50;89.20;;;;;;4974370;28;19918;-76
2022/01/22 00:14:33;;;;;;;;;;;8.50;89.20;;;;;;4992843;28;19906;-74
2022/01/22 00:16:59;;;;;;;;;;;8.50;89.30;;;;;;4992824;28;19905;-77
2022/01/22 00:19:25;;;;;;;;;;;8.50;89.30;;;;;;4991834;28;19917;-75
2022/01/22 00:21:51;;;;;;;;;;;8.60;89.40;;;;;;4974185;28;19912;-77
2022/01/22 00:24:17;;;;;;;;;;;8.50;89.30;;;;;;4974706;28;20000;-75
2022/01/22 00:26:43;;;;;;;;;;;8.60;89.30;;;;;;4992203;28;19996;-76
2022/01/22 00:29:10;;;;;;;;;;;8.50;89.30;;;;;;4974625;28;19909;-74
2022/01/22 00:31:36;;;;;;;;;;;8.50;89.30;;;;;;4991958;28;19920;-76
2022/01/22 00:34:01;;;;;;;;;;;8.50;89.30;;;;;;4974587;28;19956;-75
2022/01/22 00:36:27;;;;;;;;;;;8.60;89.40;;;;;;4992173;28;20004;-76
2022/01/22 00:38:52;;;;;;;;;;;8.50;89.30;;;;;;4991998;28;19913;-74
2022/01/22 00:41:19;;;;;;;;;;;8.60;89.30;;;;;;4974415;28;19913;-75
2022/01/22 00:43:45;;;;;;;;;;;8.60;89.30;;;;;;4991924;28;19964;-76
2022/01/22 00:46:10;;;;;;;;;;;8.50;89.80;;;;;;4974458;28;20012;-76
2022/01/22 00:48:36;;;;;;;;;;;8.50;89.40;;;;;;4974361;28;20910;-75
2022/01/22 00:51:01;;;;;;;;;;;8.50;89.30;;;;;;4974159;28;19910;-76
2022/01/22 00:53:27;;;;;;;;;;;8.60;89.40;;;;;;4991727;28;20460;-75
2022/01/22 00:55:52;;;;;;;;;;;8.50;89.30;;;;;;4991933;28;20040;-76
2022/01/22 00:58:18;;;;;;;;;;;8.50;89.40;;;;;;4991929;28;19959;-75
2022/01/22 01:00:43;;;;;;;;;;;8.60;89.40;;;;;;4973816;28;19910;-75
2022/01/22 01:03:09;;;;;;;;;;;8.60;89.40;;;;;;4974411;28;19961;-76
2022/01/22 01:05:35;;;;;;;;;;;8.50;89.30;;;;;;4974338;28;19913;-75
2022/01/22 01:08:00;;;;;;;;;;;8.60;89.50;;;;;;4974245;28;19906;-77
2022/01/22 01:10:26;;;;;;;;;;;8.50;89.40;;;;;;4974424;28;19910;-74
2022/01/22 01:12:52;;;;;;;;;;;8.60;89.50;;;;;;4990860;28;19910;-75
2022/01/22 01:34:11;;;;;;;;;;;8.50;89.60;;;;;;4991260;28;19920;-76
2022/01/22 01:36:37;;;;;;;;;;;8.60;89.70;;;;;;4991452;28;19978;-76
2022/01/22 01:39:05;;;;;;;;;;;8.60;89.60;;;;;;4973428;28;19906;-76
2022/01/22 01:41:44;;;;;;;;;;;8.60;89.70;;;;;;4972678;28;19910;-78
2022/01/22 01:44:10;;;;;;;;;;;8.50;89.60;;;;;;4990785;28;19905;-75
2022/01/22 01:46:41;;;;;;;;;;;8.60;89.70;;;;;;4991041;28;19909;-76
2022/01/22 01:49:06;;;;;;;;;;;8.60;89.70;;;;;;4973365;28;19959;-76
2022/01/22 01:51:33;;;;;;;;;;;8.50;89.70;;;;;;4990668;28;20901;-75
2022/01/22 01:54:06;;;;;;;;;;;8.60;89.70;;;;;;4973235;28;20287;-77
2022/01/22 01:59:16;;;;;;;;;;;8.60;89.80;;;;;;4990907;28;19978;-75
2022/01/22 02:01:42;;;;;;;;;;;8.60;89.80;;;;;;4972823;28;19906;-76
2022/01/22 02:04:10;;;;;;;;;;;8.60;89.80;;;;;;4972916;28;20312;-74
2022/01/22 02:06:36;;;;;;;;;;;8.50;89.80;;;;;;4973231;28;19913;-76
2022/01/22 02:09:02;;;;;;;;;;;8.60;89.80;;;;;;4990190;28;19906;-77
2022/01/22 02:11:28;;;;;;;;;;;8.60;89.80;;;;;;4972865;28;19937;-75
2022/01/22 02:24:49;;;;;;;;;;;8.60;89.90;;;;;;4990028;28;19916;-76
2022/01/22 02:27:15;;;;;;;;;;;8.60;89.90;;;;;;4990023;28;20048;-76
2022/01/22 02:29:40;;;;;;;;;;;8.60;89.90;;;;;;4990027;28;19957;-76
2022/01/22 02:34:55;;;;;;;;;;;8.60;89.90;;;;;;4990187;28;19933;-76
2022/01/22 02:37:23;;;;;;;;;;;8.60;89.90;;;;;;4989966;28;19905;-76
2022/01/22 02:40:08;;;;;;;;;;;8.60;90.00;;;;;;4972444;28;20000;-76
2022/01/22 02:42:35;;;;;;;;;;;8.60;90.00;;;;;;4989637;28;20392;-76
2022/01/22 02:45:03;;;;;;;;;;;8.60;90.00;;;;;;4972651;28;19916;-75
2022/01/22 02:47:29;;;;;;;;;;;8.60;90.00;;;;;;4972094;28;19910;-74
2022/01/22 02:49:54;;;;;;;;;;;8.50;90.00;;;;;;4990053;28;20004;-76
2022/01/22 02:52:20;;;;;;;;;;;8.60;90.00;;;;;;4989083;28;19914;-75
2022/01/22 02:54:46;;;;;;;;;;;8.60;90.00;;;;;;4989618;28;19941;-76
2022/01/22 02:57:13;;;;;;;;;;;8.50;90.00;;;;;;4972263;28;19910;-75
2022/01/22 02:59:39;;;;;;;;;;;8.60;90.00;;;;;;4989770;28;19960;-76
2022/01/22 03:02:05;;;;;;;;;;;8.60;90.00;;;;;;4971919;28;19910;-76
2022/01/22 03:04:31;;;;;;;;;;;8.60;90.00;;;;;;4989668;28;19905;-76
2022/01/22 03:06:56;;;;;;;;;;;8.60;90.00;;;;;;4972076;28;19910;-76
2022/01/22 03:09:28;;;;;;;;;;;8.60;90.00;;;;;;4972106;28;19913;-75
2022/01/22 03:12:18;;;;;;;;;;;8.60;90.10;;;;;;4971872;28;20057;-75
2022/01/22 03:22:52;;;;;;;;;;;8.60;90.10;;;;;;4989196;28;20308;-75
2022/01/22 03:27:58;;;;;;;;;;;8.60;90.10;;;;;;4989518;28;20383;-75
2022/01/22 03:30:24;;;;;;;;;;;8.60;90.10;;;;;;4989477;28;19909;-76
2022/01/22 03:32:52;;;;;;;;;;;8.60;90.10;;;;;;4972332;28;19920;-75
2022/01/22 03:35:44;;;;;;;;;;;8.60;90.10;;;;;;4991044;28;20368;-76
2022/01/22 03:38:09;;;;;;;;;;;8.60;90.10;;;;;;4976975;28;20415;-75
2022/01/22 03:40:35;;;;;;;;;;;8.60;90.10;;;;;;4973959;28;19941;-75
2022/01/22 03:43:00;;;;;;;;;;;8.60;90.20;;;;;;4973563;28;20008;-75
2022/01/22 03:45:26;;;;;;;;;;;8.60;90.20;;;;;;4956331;28;20404;-76
2022/01/22 03:47:51;;;;;;;;;;;8.60;90.20;;;;;;4956353;28;20376;-76
2022/01/22 03:50:19;;;;;;;;;;;8.60;90.20;;;;;;4956096;28;19914;-77
2022/01/22 03:52:44;;;;;;;;;;;8.60;90.20;;;;;;4955572;28;19913;-74
2022/01/22 03:55:19;;;;;;;;;;;8.60;90.20;;;;;;4973329;28;20265;-76
2022/01/22 03:57:45;;;;;;;;;;;8.60;90.40;;;;;;4956087;28;19910;-76
2022/01/22 04:00:10;;;;;;;;;;;8.60;90.20;;;;;;4973377;28;19957;-76
2022/01/22 04:05:20;;;;;;;;;;;8.60;90.20;;;;;;4973424;28;19916;-75
2022/01/22 04:10:14;;;;;;;;;;;8.60;90.30;;;;;;4973376;28;19914;-76
2022/01/22 04:13:05;;;;;;;;;;;8.60;90.30;;;;;;4972736;28;19936;-76
2022/01/22 04:15:35;;;;;;;;;;;8.60;90.30;;;;;;4973087;28;19966;-76
2022/01/22 04:26:31;;;;;;;;;;;8.60;90.30;;;;;;4973387;28;20353;-75
2022/01/22 04:28:57;;;;;;;;;;;8.60;90.30;;;;;;4973140;28;19910;-76
2022/01/22 04:31:22;;;;;;;;;;;8.60;90.30;;;;;;4972536;28;19965;-76
2022/01/22 04:33:48;;;;;;;;;;;8.60;90.30;;;;;;4955675;28;19918;-75
2022/01/22 04:36:13;;;;;;;;;;;8.60;90.30;;;;;;4955291;28;19921;-77
2022/01/22 04:38:39;;;;;;;;;;;8.60;90.30;;;;;;4955356;28;19960;-76
2022/01/22 04:41:05;;;;;;;;;;;8.60;90.30;;;;;;4955037;28;19921;-75
2022/01/22 04:43:33;;;;;;;;;;;8.60;90.30;;;;;;4957543;28;19910;-76
2022/01/22 04:46:17;;;;;;;;;;;8.60;90.40;;;;;;4971431;28;19964;-75
2022/01/22 04:48:52;;;;;;;;;;;8.60;90.40;;;;;;4957761;28;19914;-76
2022/01/22 04:56:56;;;;;;;;;;;8.60;90.40;;;;;;4974525;28;20383;-76
2022/01/22 04:59:21;;;;;;;;;;;8.60;90.40;;;;;;4956873;28;19909;-76
2022/01/22 05:01:47;;;;;;;;;;;8.60;90.40;;;;;;4974357;28;19910;-77
2022/01/22 05:04:13;;;;;;;;;;;8.60;90.50;;;;;;4957017;28;20319;-77
2022/01/22 05:06:38;;;;;;;;;;;8.60;90.50;;;;;;4974320;28;19906;-77
2022/01/22 05:09:04;;;;;;;;;;;8.60;90.50;;;;;;4973618;28;19921;-75
2022/01/22 05:11:29;;;;;;;;;;;8.60;90.50;;;;;;4973738;28;20381;-77
2022/01/22 05:13:55;;;;;;;;;;;8.60;90.50;;;;;;4973889;28;20461;-76
2022/01/22 05:16:21;;;;;;;;;;;8.60;90.50;;;;;;4969670;28;19905;-76
2022/01/22 05:18:59;;;;;;;;;;;8.60;90.50;;;;;;4993614;28;20375;-75
2022/01/22 05:21:25;;;;;;;;;;;8.60;90.50;;;;;;4975583;28;19909;-76
2022/01/22 05:23:53;;;;;;;;;;;8.60;90.50;;;;;;4976242;28;19906;-77
2022/01/22 05:29:22;;;;;;;;;;;8.60;90.50;;;;;;4993062;28;19906;-76
2022/01/22 05:37:05;;;;;;;;;;;8.60;90.60;;;;;;4988368;28;19913;-76
2022/01/22 05:39:32;;;;;;;;;;;8.60;90.60;;;;;;4975307;28;19910;-75
2022/01/22 05:41:58;;;;;;;;;;;8.60;90.50;;;;;;4992684;28;19960;-76
2022/01/22 05:44:24;;;;;;;;;;;8.60;90.60;;;;;;4975642;28;19968;-75
2022/01/22 05:46:52;;;;;;;;;;;8.60;90.50;;;;;;4974862;28;19944;-76
2022/01/22 05:49:20;;;;;;;;;;;8.60;90.60;;;;;;4975564;28;19912;-76
2022/01/22 05:51:47;;;;;;;;;;;8.60;90.60;;;;;;4992136;28;20368;-77
2022/01/22 05:59:36;;;;;;;;;;;8.60;90.60;;;;;;4992126;28;19916;-77
2022/01/22 06:02:03;;;;;;;;;;;8.60;90.60;;;;;;4974927;28;19913;-76
2022/01/22 06:04:28;;;;;;;;;;;8.60;90.60;;;;;;4975346;28;19909;-76
2022/01/22 06:06:53;;;;;;;;;;;8.60;90.70;;;;;;4975155;28;19960;-77
2022/01/22 06:09:19;;;;;;;;;;;8.60;90.70;;;;;;4992584;28;19909;-76
2022/01/22 06:11:55;;;;;;;;;;;8.60;90.70;;;;;;4974576;28;19906;-76
2022/01/22 06:14:20;;;;;;;;;;;8.60;90.70;;;;;;4992456;28;19909;-76
2022/01/22 06:16:46;;;;;;;;;;;8.60;90.70;;;;;;4992544;28;19913;-77
2022/01/22 06:19:11;;;;;;;;;;;8.60;90.70;;;;;;4992636;28;19968;-75
2022/01/22 06:21:37;;;;;;;;;;;8.60;90.70;;;;;;4991760;28;19910;-76
2022/01/22 06:24:03;;;;;;;;;;;8.60;90.70;;;;;;4993316;28;19913;-78
2022/01/22 06:26:28;;;;;;;;;;;8.60;90.70;;;;;;4974792;28;20507;-79
2022/01/22 06:28:54;;;;;;;;;;;8.60;90.70;;;;;;4972199;28;19917;-75
2022/01/22 06:31:19;;;;;;;;;;;8.60;90.70;;;;;;4972037;28;20020;-73
2022/01/22 06:33:45;;;;;;;;;;;8.60;90.70;;;;;;4989529;28;19921;-75
2022/01/22 06:36:10;;;;;;;;;;;8.60;90.70;;;;;;4989674;28;20027;-76
2022/01/22 06:38:36;;;;;;;;;;;8.60;90.70;;;;;;4989516;28;19909;-75
2022/01/22 06:43:45;;;;;;;;;;;8.60;90.70;;;;;;4989852;28;20427;-76
2022/01/22 06:46:11;;;;;;;;;;;8.60;90.70;;;;;;4972179;28;19945;-75
2022/01/22 06:48:36;;;;;;;;;;;8.60;90.70;;;;;;4971786;28;19906;-75
2022/01/22 06:51:02;;;;;;;;;;;8.60;90.70;;;;;;4971865;28;19905;-76
2022/01/22 06:53:27;;;;;;;;;;;8.60;90.70;;;;;;4989008;28;19910;-74
2022/01/22 06:56:00;;;;;;;;;;;8.60;90.70;;;;;;4972113;28;20440;-75
2022/01/22 06:58:25;;;;;;;;;;;8.60;90.70;;;;;;4988876;28;19997;-76
2022/01/22 07:00:51;;;;;;;;;;;8.60;90.70;;;;;;4988895;28;20107;-75
2022/01/22 07:03:16;;;;;;;;;;;8.60;90.70;;;;;;4971633;28;19910;-76
2022/01/22 07:05:42;;;;;;;;;;;8.60;90.70;;;;;;4971703;28;19912;-74
2022/01/22 07:08:07;;;;;;;;;;;8.60;90.70;;;;;;4989121;28;19906;-75
2022/01/22 07:10:33;;;;;;;;;;;8.60;90.80;;;;;;4971464;28;19909;-75
2022/01/22 07:12:59;;;;;;;;;;;8.60;90.80;;;;;;4988947;28;19910;-76
2022/01/22 07:15:24;;;;;;;;;;;8.60;90.80;;;;;;4971819;28;20403;-75
2022/01/22 07:17:50;;;;;;;;;;;8.60;90.80;;;;;;4988845;28;19905;-76
2022/01/22 07:20:26;;;;;;;;;;;8.60;90.80;;;;;;4989199;28;19906;-76
2022/01/22 07:22:59;;;;;;;;;;;8.60;90.80;;;;;;4971059;28;20376;-75
2022/01/22 07:25:25;;;;;;;;;;;8.60;90.80;;;;;;4989232;28;19957;-76
2022/01/22 07:27:51;;;;;;;;;;;8.60;90.80;;;;;;4988908;28;19960;-73
2022/01/22 07:30:16;;;;;;;;;;;8.60;90.80;;;;;;4989009;28;19916;-76
2022/01/22 07:32:44;;;;;;;;;;;8.60;90.80;;;;;;4988585;28;20391;-75
2022/01/22 07:35:10;;;;;;;;;;;8.60;90.80;;;;;;4971514;28;19913;-75
2022/01/22 07:37:36;;;;;;;;;;;8.60;90.80;;;;;;4988836;28;19917;-74
2022/01/22 07:40:03;;;;;;;;;;;8.60;90.80;;;;;;4971579;28;19909;-75
2022/01/22 07:42:29;;;;;;;;;;;8.60;90.80;;;;;;4987985;28;19937;-75
2022/01/22 07:44:54;;;;;;;;;;;8.60;90.80;;;;;;4971382;28;19949;-74
2022/01/22 07:47:20;;;;;;;;;;;8.60;90.80;;;;;;4988599;28;20634;-75
2022/01/22 07:49:45;;;;;;;;;;;8.60;90.80;;;;;;4971234;28;20397;-76
2022/01/22 07:52:11;;;;;;;;;;;8.60;90.80;;;;;;4970840;28;19913;-75
2022/01/22 07:54:36;;;;;;;;;;;8.60;90.80;;;;;;4971045;28;19926;-76
2022/01/22 07:57:02;;;;;;;;;;;8.60;90.80;;;;;;4971150;28;19917;-76
2022/01/22 07:59:29;;;;;;;;;;;8.60;90.80;;;;;;4988625;28;19952;-75
2022/01/22 08:01:54;;;;;;;;;;;8.60;90.80;;;;;;4970971;28;20384;-75
2022/01/22 08:04:25;;;;;;;;;;;8.60;90.80;;;;;;4971030;28;19941;-77
2022/01/22 08:06:52;;;;;;;;;;;8.60;90.80;;;;;;4988856;28;19917;-76
2022/01/22 08:09:18;;;;;;;;;;;8.60;90.80;;;;;;4988506;28;19909;-74
2022/01/22 08:11:43;;;;;;;;;;;8.60;90.80;;;;;;4988369;28;19905;-75
2022/01/22 08:14:10;;;;;;;;;;;8.60;90.90;;;;;;4971080;28;20799;-76
2022/01/22 08:16:36;;;;;;;;;;;8.60;90.90;;;;;;4988604;28;19916;-77
2022/01/22 08:19:02;;;;;;;;;;;8.60;90.80;;;;;;4970744;28;19970;-75
2022/01/22 08:21:27;;;;;;;;;;;8.60;90.80;;;;;;4988182;28;19918;-76
2022/01/22 08:23:53;;;;;;;;;;;8.60;90.80;;;;;;4974493;28;19949;-76
2022/01/22 08:26:22;;;;;;;;;;;8.60;90.80;;;;;;4974433;28;19910;-76
2022/01/22 08:28:54;;;;;;;;;;;8.60;90.80;;;;;;4974302;28;20353;-75
2022/01/22 08:31:26;;;;;;;;;;;8.60;90.80;;;;;;4991302;28;19917;-76
2022/01/22 08:36:36;;;;;;;;;;;8.60;90.80;;;;;;4992078;28;19964;-74
2022/01/22 08:39:02;;;;;;;;;;;8.70;90.80;;;;;;4974326;28;19961;-75
2022/01/22 08:41:27;;;;;;;;;;;8.70;90.80;;;;;;4973559;28;19916;-75
2022/01/22 08:43:54;;;;;;;;;;;8.70;90.80;;;;;;4974255;28;19906;-76
2022/01/22 08:46:19;;;;;;;;;;;8.70;90.80;;;;;;4974165;28;19906;-76
2022/01/22 08:48:45;;;;;;;;;;;8.60;90.80;;;;;;4974048;28;19932;-75
2022/01/22 08:51:12;;;;;;;;;;;8.60;90.80;;;;;;4991352;28;19909;-77
2022/01/22 08:53:38;;;;;;;;;;;8.60;90.80;;;;;;4973859;28;19920;-76
2022/01/22 08:56:05;;;;;;;;;;;8.60;90.80;;;;;;4974328;28;19914;-76
2022/01/22 08:58:31;;;;;;;;;;;8.70;90.80;;;;;;4974150;28;19910;-76
2022/01/22 09:00:56;;;;;;;;;;;8.70;90.80;;;;;;4990847;28;19913;-76
2022/01/22 09:03:23;;;;;;;;;;;8.70;90.80;;;;;;4974023;28;20296;-76
2022/01/22 09:05:49;;;;;;;;;;;8.70;90.80;;;;;;4973851;28;20037;-78
2022/01/22 09:08:15;;;;;;;;;;;8.60;90.80;;;;;;4991514;28;20008;-76
2022/01/22 09:10:41;;;;;;;;;;;8.70;90.80;;;;;;4973526;28;20021;-75
2022/01/22 09:13:06;;;;;;;;;;;8.70;90.90;;;;;;4991098;28;19910;-74
2022/01/22 09:15:32;;;;;;;;;;;8.70;90.90;;;;;;4974087;28;19917;-75
2022/01/22 09:17:57;;;;;;;;;;;8.70;90.80;;;;;;4973502;28;19910;-76
2022/01/22 09:20:45;;;;;;;;;;;8.60;90.80;;;;;;4973613;28;19963;-74
2022/01/22 09:23:11;;;;;;;;;;;8.70;90.80;;;;;;4973799;28;19910;-75
2022/01/22 09:25:36;;;;;;;;;;;8.70;90.90;;;;;;4973643;28;20360;-77
2022/01/22 09:28:02;;;;;;;;;;;8.60;90.80;;;;;;4973817;28;19916;-75
2022/01/22 09:30:28;;;;;;;;;;;8.70;90.90;;;;;;4974477;28;19964;-77
2022/01/22 09:32:53;;;;;;;;;;;8.70;90.90;;;;;;4990954;28;19914;-77
2022/01/22 09:35:19;;;;;;;;;;;8.70;90.90;;;;;;4973774;28;20003;-76
2022/01/22 09:37:45;;;;;;;;;;;8.70;90.90;;;;;;4991337;28;19914;-76
2022/01/22 09:40:12;;;;;;;;;;;8.70;90.90;;;;;;4973461;28;20427;-76
2022/01/22 09:42:39;;;;;;;;;;;8.70;90.90;;;;;;4990679;28;20036;-75
2022/01/22 09:45:04;;;;;;;;;;;8.70;90.90;;;;;;4973423;28;19925;-75
2022/01/22 09:47:30;;;;;;;;;;;8.70;90.90;;;;;;4973512;28;19910;-76
2022/01/22 09:49:56;;;;;;;;;;;8.70;90.90;;;;;;4973433;28;20016;-75
2022/01/22 09:52:22;;;;;;;;;;;8.70;90.90;;;;;;4990366;28;19914;-77
2022/01/22 09:54:48;;;;;;;;;;;8.70;90.90;;;;;;4973252;28;19917;-75
2022/01/22 09:57:14;;;;;;;;;;;8.70;90.90;;;;;;4990692;28;19910;-77
2022/01/22 09:59:39;;;;;;;;;;;8.70;90.90;;;;;;4973106;28;19910;-73
2022/01/22 10:02:07;;;;;;;;;;;8.70;90.90;;;;;;4990174;28;19910;-76
2022/01/22 10:04:34;;;;;;;;;;;8.70;90.90;;;;;;4972848;28;19910;-75
2022/01/22 10:06:59;;;;;;;;;;;8.70;90.90;;;;;;4972959;28;19906;-78
2022/01/22 10:09:26;;;;;;;;;;;8.70;90.90;;;;;;4973070;28;19905;-73
2022/01/22 10:12:11;;;;;;;;;;;8.70;90.90;;;;;;4990013;28;20000;-74
2022/01/22 10:14:55;;;;;;;;;;;8.70;90.90;;;;;;4972816;28;20304;-74
2022/01/22 10:17:42;;;;;;;;;;;8.70;90.90;;;;;;4972492;28;19912;-75
2022/01/22 10:20:28;;;;;;;;;;;8.70;90.90;;;;;;4989929;28;19910;-76
2022/01/22 10:22:55;;;;;;;;;;;8.70;90.90;;;;;;4989199;28;19989;-75
2022/01/22 10:25:23;;;;;;;;;;;8.70;90.90;;;;;;4990240;28;19912;-76
2022/01/22 10:27:59;;;;;;;;;;;8.70;90.90;;;;;;4990022;28;19909;-76
2022/01/22 10:30:34;;;;;;;;;;;8.70;90.80;;;;;;4990096;28;20448;-76
2022/01/22 10:33:09;;;;;;;;;;;8.70;90.90;;;;;;4970634;28;19917;-76
2022/01/22 10:35:35;;;;;;;;;;;8.70;90.80;;;;;;4972984;28;19918;-76
2022/01/22 10:38:01;;;;;;;;;;;8.70;90.80;;;;;;4972592;28;19964;-75
2022/01/22 10:40:28;;;;;;;;;;;8.70;90.80;;;;;;4973885;28;19956;-75
2022/01/22 10:43:12;;;;;;;;;;;8.70;90.80;;;;;;4991431;28;19932;-73
2022/01/22 10:45:41;;;;;;;;;;;8.70;90.90;;;;;;4973682;28;20408;-77
2022/01/22 10:48:18;;;;;;;;;;;8.70;90.90;;;;;;4974225;28;19910;-75
2022/01/22 10:50:43;;;;;;;;;;;8.70;90.90;;;;;;4991398;28;20370;-74
2022/01/22 10:53:09;;;;;;;;;;;8.70;90.90;;;;;;4974033;28;19910;-76
2022/01/22 10:55:54;;;;;;;;;;;8.70;90.90;;;;;;4974096;28;19921;-74
2022/01/22 10:58:20;;;;;;;;;;;8.70;90.90;;;;;;4990854;28;19952;-75
2022/01/22 11:00:56;;;;;;;;;;;8.70;90.90;;;;;;4991076;28;20195;-75
2022/01/22 11:03:22;;;;;;;;;;;8.70;90.90;;;;;;4974157;28;19906;-75
2022/01/22 11:05:48;;;;;;;;;;;8.80;90.90;;;;;;4974435;28;19960;-74
2022/01/22 11:08:14;;;;;;;;;;;8.70;90.90;;;;;;4991765;28;19912;-76
2022/01/22 11:10:45;;;;;;;;;;;8.70;90.90;;;;;;4991094;28;19905;-76
2022/01/22 11:13:11;;;;;;;;;;;8.70;90.90;;;;;;4973551;28;19937;-75
2022/01/22 11:15:38;;;;;;;;;;;8.70;90.90;;;;;;4972652;28;19906;-75
2022/01/22 11:18:05;;;;;;;;;;;8.70;91.00;;;;;;4972241;28;19945;-75
2022/01/22 11:20:31;;;;;;;;;;;8.70;90.90;;;;;;4989830;28;20284;-77
2022/01/22 11:22:57;;;;;;;;;;;8.70;90.90;;;;;;4971960;28;19940;-76
2022/01/22 11:25:24;;;;;;;;;;;8.70;91.00;;;;;;4972097;28;20258;-74
2022/01/22 11:27:49;;;;;;;;;;;8.70;91.00;;;;;;4972402;28;19982;-75
2022/01/22 11:30:17;;;;;;;;;;;8.70;91.00;;;;;;4990080;28;19952;-74
2022/01/22 11:32:49;;;;;;;;;;;8.70;91.00;;;;;;4989029;28;20265;-75
2022/01/22 11:35:20;;;;;;;;;;;8.70;90.90;;;;;;4989398;28;20447;-77
2022/01/22 11:37:46;;;;;;;;;;;8.80;91.00;;;;;;4971985;28;19912;-76
2022/01/22 11:40:20;;;;;;;;;;;8.80;91.00;;;;;;4971877;28;19965;-76
2022/01/22 11:43:09;;;;;;;;;;;8.80;91.00;;;;;;4989104;28;19914;-73
2022/01/22 11:45:44;;;;;;;;;;;8.80;91.00;;;;;;4989488;28;19910;-80
2022/01/22 11:48:16;;;;;;;;;;;8.80;91.00;;;;;;4971633;28;19906;-75
2022/01/22 11:50:42;;;;;;;;;;;8.80;90.90;;;;;;4971606;28;19906;-75
2022/01/22 11:53:26;;;;;;;;;;;8.80;90.90;;;;;;4971870;28;19909;-75
2022/01/22 11:56:10;;;;;;;;;;;8.80;90.90;;;;;;4971725;28;20782;-75
2022/01/22 11:58:54;;;;;;;;;;;8.80;90.90;;;;;;4975635;28;19949;-75
2022/01/22 12:02:02;;;;;;;;;;;8.80;91.00;;;;;;4992373;28;19906;-75
2022/01/22 12:04:28;;;;;;;;;;;8.80;91.00;;;;;;4992455;28;20718;-77
2022/01/22 12:07:00;;;;;;;;;;;8.80;90.90;;;;;;4993307;28;19909;-78
2022/01/22 12:09:26;;;;;;;;;;;8.80;90.90;;;;;;4975191;28;20008;-75
2022/01/22 12:14:49;;;;;;;;;;;8.80;91.10;;;;;;4993237;28;19921;-77
2022/01/22 12:17:23;;;;;;;;;;;8.80;90.90;;;;;;4992246;28;20001;-76
2022/01/22 12:22:33;;;;;;;;;;;8.80;90.80;;;;;;4992154;28;19910;-74
2022/01/22 12:25:00;;;;;;;;;;;8.80;90.90;;;;;;4974952;28;19916;-75
2022/01/22 12:27:41;;;;;;;;;;;8.80;90.90;;;;;;4974825;28;19909;-76
2022/01/22 12:30:06;;;;;;;;;;;8.80;90.90;;;;;;4992305;28;19964;-75
2022/01/22 12:32:42;;;;;;;;;;;8.80;90.90;;;;;;4991901;28;19909;-76
2022/01/22 12:35:09;;;;;;;;;;;8.80;91.00;;;;;;4992227;28;20000;-74
2022/01/22 12:37:40;;;;;;;;;;;8.80;91.00;;;;;;4992219;28;19917;-76
2022/01/22 12:40:06;;;;;;;;;;;8.80;91.00;;;;;;4974998;28;20420;-76
2022/01/22 12:43:07;;;;;;;;;;;8.80;91.00;;;;;;4974026;28;20386;-76
2022/01/22 12:45:34;;;;;;;;;;;8.80;91.00;;;;;;4974503;28;19909;-77
2022/01/22 12:48:00;;;;;;;;;;;8.80;91.00;;;;;;4992258;28;20418;-79
2022/01/22 12:50:27;;;;;;;;;;;8.80;91.00;;;;;;4992552;28;19906;-76
2022/01/22 12:52:53;;;;;;;;;;;8.80;91.00;;;;;;4974334;28;20036;-75
2022/01/22 12:55:23;;;;;;;;;;;8.80;91.00;;;;;;4974592;28;20004;-75
2022/01/22 12:57:48;;;;;;;;;;;8.80;91.00;;;;;;4992023;28;19952;-77
2022/01/22 13:00:17;;;;;;;;;;;8.80;91.00;;;;;;4974163;28;19909;-74
2022/01/22 13:02:45;;;;;;;;;;;8.80;91.10;;;;;;4974398;28;19940;-76
2022/01/22 13:05:12;;;;;;;;;;;8.80;91.10;;;;;;4993632;28;19914;-76
2022/01/22 13:07:56;;;;;;;;;;;8.80;91.10;;;;;;4990976;28;20016;-76
2022/01/22 13:10:26;;;;;;;;;;;8.80;91.10;;;;;;4993077;28;19956;-76
2022/01/22 13:12:53;;;;;;;;;;;8.80;91.10;;;;;;4975614;28;20504;-75
2022/01/22 13:15:19;;;;;;;;;;;8.80;91.10;;;;;;4975864;28;19914;-76
2022/01/22 13:17:52;;;;;;;;;;;8.80;91.10;;;;;;4975335;28;19910;-76
2022/01/22 13:20:24;;;;;;;;;;;8.80;91.10;;;;;;4993151;28;19981;-76
2022/01/22 13:22:50;;;;;;;;;;;8.80;91.10;;;;;;4992664;28;19914;-80
2022/01/22 13:25:16;;;;;;;;;;;8.80;91.10;;;;;;4992847;28;19906;-75
2022/01/22 13:27:42;;;;;;;;;;;8.80;91.10;;;;;;4993704;28;19960;-75
2022/01/22 13:30:09;;;;;;;;;;;8.80;91.10;;;;;;4974939;28;19906;-79
2022/01/22 13:32:49;;;;;;;;;;;8.80;91.10;;;;;;4974354;28;20369;-76
2022/01/22 13:40:31;;;;;;;;;;;8.80;91.20;;;;;;4992329;28;19972;-75
2022/01/22 13:48:30;;;;;;;;;;;8.80;91.20;;;;;;4991716;28;20419;-75
2022/01/22 13:50:56;;;;;;;;;;;8.80;91.20;;;;;;4991461;28;19916;-75
2022/01/22 13:53:22;;;;;;;;;;;8.80;91.20;;;;;;4991533;28;20289;-76
2022/01/22 13:55:57;;;;;;;;;;;8.80;91.20;;;;;;4974468;28;20320;-76
2022/01/22 13:58:23;;;;;;;;;;;8.80;91.20;;;;;;4991627;28;20000;-75
2022/01/22 14:00:48;;;;;;;;;;;8.80;91.20;;;;;;4974410;28;20597;-75
2022/01/22 14:03:33;;;;;;;;;;;8.80;91.20;;;;;;4974200;28;19910;-75
2022/01/22 14:06:00;;;;;;;;;;;8.80;91.20;;;;;;4974500;28;19988;-76
2022/01/22 14:08:33;;;;;;;;;;;8.80;91.20;;;;;;4974095;28;19956;-76
2022/01/22 14:11:16;;;;;;;;;;;8.80;91.20;;;;;;4991258;28;19917;-75
2022/01/22 14:13:42;;;;;;;;;;;8.80;91.30;;;;;;4974153;28;20580;-77
2022/01/22 14:16:14;;;;;;;;;;;8.80;91.20;;;;;;4974118;28;19917;-76
2022/01/22 14:18:40;;;;;;;;;;;8.80;91.20;;;;;;4991105;28;19909;-76
2022/01/22 14:21:06;;;;;;;;;;;8.80;91.20;;;;;;4990160;28;19916;-79
2022/01/22 14:23:32;;;;;;;;;;;8.80;91.20;;;;;;4991544;28;20008;-74
2022/01/22 14:26:00;;;;;;;;;;;8.80;91.20;;;;;;4973756;28;19914;-76
2022/01/22 14:28:36;;;;;;;;;;;8.80;91.20;;;;;;4974352;28;19925;-76
2022/01/22 14:31:01;;;;;;;;;;;8.80;91.30;;;;;;4973357;28;19916;-78
2022/01/22 14:33:40;;;;;;;;;;;8.80;91.50;;;;;;4991151;28;19909;-75
2022/01/22 14:36:05;;;;;;;;;;;8.80;91.30;;;;;;4973621;28;20360;-78
2022/01/22 14:38:41;;;;;;;;;;;8.80;91.30;;;;;;4974536;28;19929;-75
2022/01/22 14:46:53;;;;;;;;;;;8.80;91.30;;;;;;4993145;28;19913;-75
2022/01/22 14:49:23;;;;;;;;;;;8.80;91.30;;;;;;4992421;28;19905;-77
2022/01/22 14:51:48;;;;;;;;;;;8.80;91.30;;;;;;4991608;28;19913;-76
2022/01/22 14:54:15;;;;;;;;;;;8.80;91.30;;;;;;4969263;28;19918;-78
2022/01/22 14:56:41;;;;;;;;;;;8.80;91.30;;;;;;4971380;28;19917;-76
2022/01/22 14:59:06;;;;;;;;;;;8.80;91.30;;;;;;4955036;28;20025;-78
2022/01/22 15:01:32;;;;;;;;;;;8.80;91.30;;;;;;4972538;28;19993;-78
2022/01/22 15:03:57;;;;;;;;;;;8.80;91.30;;;;;;4975468;28;19953;-80
2022/01/22 15:06:23;;;;;;;;;;;8.80;91.50;;;;;;4974563;28;19933;-77
2022/01/22 15:08:48;;;;;;;;;;;8.80;91.40;;;;;;4992016;28;20730;-76
2022/01/22 15:11:14;;;;;;;;;;;8.80;91.30;;;;;;4974170;28;19945;-77
2022/01/22 15:13:39;;;;;;;;;;;8.90;91.20;;;;;;4974174;28;20375;-76
2022/01/22 15:16:05;;;;;;;;;;;8.90;91.20;;;;;;4991783;28;19918;-76
2022/01/22 15:18:51;;;;;;;;;;;8.90;91.10;;;;;;4973817;28;19906;-76
2022/01/22 15:21:16;;;;;;;;;;;8.90;91.10;;;;;;4991148;28;20391;-78
2022/01/22 15:23:42;;;;;;;;;;;8.90;91.20;;;;;;4974554;28;19941;-76
2022/01/22 15:26:08;;;;;;;;;;;8.90;91.10;;;;;;4974602;28;19937;-77
2022/01/22 15:28:43;;;;;;;;;;;8.90;91.10;;;;;;4963596;28;19961;-77
2022/01/22 15:31:16;;;;;;;;;;;8.90;91.10;;;;;;4955841;28;19910;-76
2022/01/22 15:34:36;;;;;;;;;;;8.90;91.00;;;;;;4958905;28;20266;-78
2022/01/22 15:36:27;;;;;;;;;;;8.90;91.00;;;;;;4965129;28;19910;-77
2022/01/22 15:38:52;;;;;;;;;;;8.90;90.90;;;;;;4975679;28;19937;-77
2022/01/22 15:41:18;;;;;;;;;;;8.90;90.90;;;;;;4976128;28;19906;-77
2022/01/22 15:43:44;;;;;;;;;;;8.90;90.90;;;;;;4975823;28;19906;-76
2022/01/22 15:46:09;;;;;;;;;;;8.90;90.90;;;;;;4958135;28;20369;-77
2022/01/22 15:48:35;;;;;;;;;;;8.90;90.90;;;;;;4958533;28;20369;-77
2022/01/22 15:51:00;;;;;;;;;;;8.90;90.90;;;;;;4958051;28;19906;-77
2022/01/22 15:53:25;;;;;;;;;;;8.90;90.90;;;;;;4957848;28;19921;-78
2022/01/22 15:55:51;;;;;;;;;;;8.90;90.90;;;;;;4975688;28;19909;-77
2022/01/22 15:58:17;;;;;;;;;;;8.90;90.90;;;;;;4975566;28;19910;-76
2022/01/22 16:00:43;;;;;;;;;;;8.90;90.80;;;;;;4958006;28;19910;-77
2022/01/22 16:03:09;;;;;;;;;;;8.90;90.80;;;;;;4957929;28;19917;-78
2022/01/22 16:05:35;;;;;;;;;;;8.90;90.80;;;;;;4957991;28;20769;-77
2022/01/22 16:08:01;;;;;;;;;;;8.90;90.80;;;;;;4975183;28;19953;-76
2022/01/22 16:10:27;;;;;;;;;;;8.90;90.80;;;;;;4958361;28;19917;-77
2022/01/22 16:12:54;;;;;;;;;;;8.90;90.80;;;;;;4974695;28;19914;-78
2022/01/22 16:15:19;;;;;;;;;;;8.90;90.80;;;;;;4958469;28;19910;-78
2022/01/22 16:17:46;;;;;;;;;;;8.90;90.80;;;;;;4966717;28;20013;-76
2022/01/22 16:20:12;;;;;;;;;;;8.90;90.80;;;;;;4974835;28;19906;-76
2022/01/22 16:22:37;;;;;;;;;;;8.90;90.80;;;;;;4961153;28;20333;-75
2022/01/22 16:25:03;;;;;;;;;;;8.90;90.80;;;;;;4980745;28;19910;-76